KRAC/RAC METAR and TAF weather

Enter ICAO airport designator
Station Type Date Time Source
KRAC METAR 2019/04/21 21:53 UTC NOAA

KRAC 212153Z AUTO 17016G23KT 10SM CLR 17/M01 A2997 RMK AO2 SLP150 T01721006


Station Type Date Time Source
KRAC Decoded METAR 2019/04/21 21:53 UTC NOAA

BATTEN INTERNATIONAL AIRPORT, WI, United States (KRAC) 42-46N 87-49W 203M
Apr 21, 2019 - 05:53 PM EDT / 2019.04.21 2153 UTC
Wind: from the S (170 degrees) at 18 MPH (16 KT) gusting to 26 MPH (23 KT):0
Visibility: 10 mile(s):0
Sky conditions: clear
Temperature: 63.0 F (17.2 C)
Dew Point: 30.9 F (-0.6 C)
Relative Humidity: 29%
Pressure (altimeter): 29.97 in. Hg (1014 hPa)
ob: KRAC 212153Z AUTO 17016G23KT 10SM CLR 17/M01 A2997 RMK AO2 SLP150 T01721006
cycle: 22

Station Type Date Time Source
KRAC TAF UTC NOAA

Error!

Example: see airport list